sensor_id;sensor_type;location;lat;lon;timestamp;P1;durP1;ratioP1;P2;durP2;ratioP2
29686;SDS011;16599;47.078;15.536;2022-07-17T00:00:15;7.57;;;6.60;;
29686;SDS011;16599;47.078;15.536;2022-07-17T00:02:42;8.70;;;6.45;;
29686;SDS011;16599;47.078;15.536;2022-07-17T00:05:09;7.63;;;5.55;;
29686;SDS011;16599;47.078;15.536;2022-07-17T00:07:36;11.52;;;6.03;;
29686;SDS011;16599;47.078;15.536;2022-07-17T00:10:03;7.47;;;5.82;;
29686;SDS011;16599;47.078;15.536;2022-07-17T00:12:30;9.32;;;6.40;;
29686;SDS011;16599;47.078;15.536;2022-07-17T00:14:57;11.65;;;6.68;;
29686;SDS011;16599;47.078;15.536;2022-07-17T00:17:25;8.75;;;6.18;;
29686;SDS011;16599;47.078;15.536;2022-07-17T00:19:51;10.40;;;6.72;;
29686;SDS011;16599;47.078;15.536;2022-07-17T00:22:18;9.73;;;6.22;;
29686;SDS011;16599;47.078;15.536;2022-07-17T00:24:47;6.85;;;5.63;;
29686;SDS011;16599;47.078;15.536;2022-07-17T00:27:14;8.48;;;6.28;;
29686;SDS011;16599;47.078;15.536;2022-07-17T00:29:41;8.23;;;5.82;;
29686;SDS011;16599;47.078;15.536;2022-07-17T00:32:08;7.88;;;5.90;;
29686;SDS011;16599;47.078;15.536;2022-07-17T00:34:35;8.00;;;6.28;;
29686;SDS011;16599;47.078;15.536;2022-07-17T00:37:01;8.80;;;5.90;;
29686;SDS011;16599;47.078;15.536;2022-07-17T00:39:28;6.78;;;6.05;;
29686;SDS011;16599;47.078;15.536;2022-07-17T00:41:55;9.25;;;6.38;;
29686;SDS011;16599;47.078;15.536;2022-07-17T00:44:25;8.85;;;6.50;;
29686;SDS011;16599;47.078;15.536;2022-07-17T00:46:52;8.30;;;6.45;;
29686;SDS011;16599;47.078;15.536;2022-07-17T00:49:20;9.90;;;6.03;;
29686;SDS011;16599;47.078;15.536;2022-07-17T00:51:47;9.30;;;6.15;;
29686;SDS011;16599;47.078;15.536;2022-07-17T00:54:15;7.25;;;5.90;;
29686;SDS011;16599;47.078;15.536;2022-07-17T00:56:46;9.18;;;6.25;;
29686;SDS011;16599;47.078;15.536;2022-07-17T00:59:14;9.82;;;6.38;;
29686;SDS011;16599;47.078;15.536;2022-07-17T01:01:42;8.77;;;6.13;;
29686;SDS011;16599;47.078;15.536;2022-07-17T01:04:09;7.75;;;5.78;;
29686;SDS011;16599;47.078;15.536;2022-07-17T01:06:36;10.18;;;6.18;;
29686;SDS011;16599;47.078;15.536;2022-07-17T01:09:03;10.93;;;6.78;;
29686;SDS011;16599;47.078;15.536;2022-07-17T01:11:30;11.07;;;5.93;;
29686;SDS011;16599;47.078;15.536;2022-07-17T01:13:57;8.50;;;5.90;;
29686;SDS011;16599;47.078;15.536;2022-07-17T01:16:24;8.93;;;5.55;;
29686;SDS011;16599;47.078;15.536;2022-07-17T01:18:52;8.23;;;5.70;;
29686;SDS011;16599;47.078;15.536;2022-07-17T01:21:20;7.00;;;5.25;;
29686;SDS011;16599;47.078;15.536;2022-07-17T01:23:48;8.80;;;5.45;;
29686;SDS011;16599;47.078;15.536;2022-07-17T01:26:15;9.30;;;5.60;;
29686;SDS011;16599;47.078;15.536;2022-07-17T01:28:42;7.05;;;5.55;;
29686;SDS011;16599;47.078;15.536;2022-07-17T01:31:09;10.45;;;5.82;;
29686;SDS011;16599;47.078;15.536;2022-07-17T01:33:36;6.75;;;5.57;;
29686;SDS011;16599;47.078;15.536;2022-07-17T01:36:03;6.60;;;5.60;;
29686;SDS011;16599;47.078;15.536;2022-07-17T01:38:30;10.57;;;5.70;;
29686;SDS011;16599;47.078;15.536;2022-07-17T01:40:57;9.02;;;5.75;;
29686;SDS011;16599;47.078;15.536;2022-07-17T01:43:24;7.90;;;5.82;;
29686;SDS011;16599;47.078;15.536;2022-07-17T01:45:51;8.73;;;5.90;;
29686;SDS011;16599;47.078;15.536;2022-07-17T01:48:27;9.45;;;5.60;;
29686;SDS011;16599;47.078;15.536;2022-07-17T01:50:56;9.63;;;5.80;;
29686;SDS011;16599;47.078;15.536;2022-07-17T01:53:23;5.55;;;5.00;;
29686;SDS011;16599;47.078;15.536;2022-07-17T01:55:50;11.57;;;5.35;;
29686;SDS011;16599;47.078;15.536;2022-07-17T01:58:17;5.63;;;4.93;;
29686;SDS011;16599;47.078;15.536;2022-07-17T02:00:44;7.55;;;5.35;;
29686;SDS011;16599;47.078;15.536;2022-07-17T02:03:11;7.85;;;5.50;;
29686;SDS011;16599;47.078;15.536;2022-07-17T02:05:38;7.80;;;5.90;;
29686;SDS011;16599;47.078;15.536;2022-07-17T02:08:05;7.50;;;4.90;;
29686;SDS011;16599;47.078;15.536;2022-07-17T02:10:32;7.15;;;5.45;;
29686;SDS011;16599;47.078;15.536;2022-07-17T02:12:59;7.82;;;4.75;;
29686;SDS011;16599;47.078;15.536;2022-07-17T02:15:26;6.95;;;4.80;;
29686;SDS011;16599;47.078;15.536;2022-07-17T02:17:53;10.05;;;5.13;;
29686;SDS011;16599;47.078;15.536;2022-07-17T02:20:21;8.05;;;5.05;;
29686;SDS011;16599;47.078;15.536;2022-07-17T02:22:48;10.15;;;5.35;;
29686;SDS011;16599;47.078;15.536;2022-07-17T02:25:15;9.75;;;4.78;;
29686;SDS011;16599;47.078;15.536;2022-07-17T02:27:42;7.43;;;5.10;;
29686;SDS011;16599;47.078;15.536;2022-07-17T02:30:13;6.28;;;4.82;;
29686;SDS011;16599;47.078;15.536;2022-07-17T02:32:42;6.55;;;4.65;;
29686;SDS011;16599;47.078;15.536;2022-07-17T02:35:10;8.93;;;4.78;;
29686;SDS011;16599;47.078;15.536;2022-07-17T02:37:38;6.28;;;4.85;;
29686;SDS011;16599;47.078;15.536;2022-07-17T02:40:05;6.72;;;4.38;;
29686;SDS011;16599;47.078;15.536;2022-07-17T02:42:33;9.32;;;5.05;;
29686;SDS011;16599;47.078;15.536;2022-07-17T02:45:00;9.00;;;4.72;;
29686;SDS011;16599;47.078;15.536;2022-07-17T02:47:28;9.82;;;5.00;;
29686;SDS011;16599;47.078;15.536;2022-07-17T02:49:57;9.02;;;4.97;;
29686;SDS011;16599;47.078;15.536;2022-07-17T02:52:24;8.23;;;5.07;;
29686;SDS011;16599;47.078;15.536;2022-07-17T02:54:51;6.32;;;4.85;;
29686;SDS011;16599;47.078;15.536;2022-07-17T02:57:18;7.72;;;5.15;;
29686;SDS011;16599;47.078;15.536;2022-07-17T02:59:45;6.53;;;4.57;;
29686;SDS011;16599;47.078;15.536;2022-07-17T03:02:13;7.95;;;4.80;;
29686;SDS011;16599;47.078;15.536;2022-07-17T03:04:40;11.43;;;5.32;;
29686;SDS011;16599;47.078;15.536;2022-07-17T03:07:08;6.32;;;4.65;;
29686;SDS011;16599;47.078;15.536;2022-07-17T03:09:34;9.48;;;5.20;;
29686;SDS011;16599;47.078;15.536;2022-07-17T03:12:01;10.63;;;4.43;;
29686;SDS011;16599;47.078;15.536;2022-07-17T03:14:28;9.68;;;4.80;;
29686;SDS011;16599;47.078;15.536;2022-07-17T03:16:55;5.90;;;4.28;;
29686;SDS011;16599;47.078;15.536;2022-07-17T03:19:22;7.45;;;4.15;;
29686;SDS011;16599;47.078;15.536;2022-07-17T03:21:49;8.63;;;4.13;;
29686;SDS011;16599;47.078;15.536;2022-07-17T03:24:16;6.20;;;4.18;;
29686;SDS011;16599;47.078;15.536;2022-07-17T03:26:43;6.40;;;3.85;;
29686;SDS011;16599;47.078;15.536;2022-07-17T03:29:10;6.43;;;3.65;;
29686;SDS011;16599;47.078;15.536;2022-07-17T03:31:37;7.57;;;3.88;;
29686;SDS011;16599;47.078;15.536;2022-07-17T03:34:05;3.95;;;3.55;;
29686;SDS011;16599;47.078;15.536;2022-07-17T03:36:31;8.50;;;3.88;;
29686;SDS011;16599;47.078;15.536;2022-07-17T03:38:58;5.57;;;4.18;;
29686;SDS011;16599;47.078;15.536;2022-07-17T03:41:25;5.68;;;3.60;;
29686;SDS011;16599;47.078;15.536;2022-07-17T03:43:53;7.07;;;3.63;;
29686;SDS011;16599;47.078;15.536;2022-07-17T03:46:21;5.00;;;3.88;;
29686;SDS011;16599;47.078;15.536;2022-07-17T03:48:48;7.60;;;3.70;;
29686;SDS011;16599;47.078;15.536;2022-07-17T03:51:15;5.85;;;3.90;;
29686;SDS011;16599;47.078;15.536;2022-07-17T03:53:42;4.22;;;3.70;;
29686;SDS011;16599;47.078;15.536;2022-07-17T03:56:09;7.90;;;3.67;;
29686;SDS011;16599;47.078;15.536;2022-07-17T03:58:36;5.28;;;3.35;;
29686;SDS011;16599;47.078;15.536;2022-07-17T04:01:03;5.10;;;3.85;;
29686;SDS011;16599;47.078;15.536;2022-07-17T04:03:30;4.85;;;3.55;;
29686;SDS011;16599;47.078;15.536;2022-07-17T04:05:57;4.43;;;3.30;;
29686;SDS011;16599;47.078;15.536;2022-07-17T04:08:24;7.20;;;3.53;;
29686;SDS011;16599;47.078;15.536;2022-07-17T04:10:51;5.68;;;3.80;;
29686;SDS011;16599;47.078;15.536;2022-07-17T04:13:18;4.95;;;3.42;;
29686;SDS011;16599;47.078;15.536;2022-07-17T04:15:45;4.35;;;3.20;;
29686;SDS011;16599;47.078;15.536;2022-07-17T04:18:27;10.60;;;3.67;;
29686;SDS011;16599;47.078;15.536;2022-07-17T04:20:56;5.82;;;3.10;;
29686;SDS011;16599;47.078;15.536;2022-07-17T04:23:25;4.65;;;3.42;;
29686;SDS011;16599;47.078;15.536;2022-07-17T04:25:53;5.28;;;3.55;;
29686;SDS011;16599;47.078;15.536;2022-07-17T04:28:21;7.20;;;3.45;;
29686;SDS011;16599;47.078;15.536;2022-07-17T04:30:48;5.10;;;3.70;;
29686;SDS011;16599;47.078;15.536;2022-07-17T04:33:15;3.70;;;3.30;;
29686;SDS011;16599;47.078;15.536;2022-07-17T04:35:43;3.80;;;3.40;;
29686;SDS011;16599;47.078;15.536;2022-07-17T04:38:10;9.82;;;3.53;;
29686;SDS011;16599;47.078;15.536;2022-07-17T04:40:37;3.78;;;3.10;;
29686;SDS011;16599;47.078;15.536;2022-07-17T04:43:05;7.80;;;3.40;;
29686;SDS011;16599;47.078;15.536;2022-07-17T04:45:32;5.40;;;3.38;;
29686;SDS011;16599;47.078;15.536;2022-07-17T04:47:59;4.05;;;2.92;;
29686;SDS011;16599;47.078;15.536;2022-07-17T04:50:26;6.05;;;3.45;;
29686;SDS011;16599;47.078;15.536;2022-07-17T04:52:53;4.63;;;2.95;;
29686;SDS011;16599;47.078;15.536;2022-07-17T04:55:20;7.28;;;2.83;;
29686;SDS011;16599;47.078;15.536;2022-07-17T04:57:47;3.60;;;2.92;;
29686;SDS011;16599;47.078;15.536;2022-07-17T05:00:14;3.80;;;3.10;;
29686;SDS011;16599;47.078;15.536;2022-07-17T05:02:42;4.50;;;3.40;;
29686;SDS011;16599;47.078;15.536;2022-07-17T05:05:09;6.65;;;3.17;;
29686;SDS011;16599;47.078;15.536;2022-07-17T05:07:36;9.10;;;3.20;;
29686;SDS011;16599;47.078;15.536;2022-07-17T05:10:03;4.57;;;3.00;;
29686;SDS011;16599;47.078;15.536;2022-07-17T05:12:31;4.60;;;2.90;;
29686;SDS011;16599;47.078;15.536;2022-07-17T05:14:58;7.95;;;3.47;;
29686;SDS011;16599;47.078;15.536;2022-07-17T05:17:25;5.75;;;2.90;;
29686;SDS011;16599;47.078;15.536;2022-07-17T05:19:53;5.30;;;2.90;;
29686;SDS011;16599;47.078;15.536;2022-07-17T05:22:19;4.28;;;3.00;;
29686;SDS011;16599;47.078;15.536;2022-07-17T05:24:46;3.60;;;2.80;;
29686;SDS011;16599;47.078;15.536;2022-07-17T05:27:13;4.78;;;2.80;;
29686;SDS011;16599;47.078;15.536;2022-07-17T05:29:40;8.70;;;3.20;;
29686;SDS011;16599;47.078;15.536;2022-07-17T05:32:07;6.03;;;2.65;;
29686;SDS011;16599;47.078;15.536;2022-07-17T05:34:34;3.08;;;2.45;;
29686;SDS011;16599;47.078;15.536;2022-07-17T05:37:01;4.28;;;2.50;;
29686;SDS011;16599;47.078;15.536;2022-07-17T05:39:27;4.82;;;2.88;;
29686;SDS011;16599;47.078;15.536;2022-07-17T05:41:54;6.82;;;2.40;;
29686;SDS011;16599;47.078;15.536;2022-07-17T05:44:21;8.68;;;2.45;;
29686;SDS011;16599;47.078;15.536;2022-07-17T05:46:48;2.33;;;2.10;;
29686;SDS011;16599;47.078;15.536;2022-07-17T05:49:15;3.33;;;1.90;;
29686;SDS011;16599;47.078;15.536;2022-07-17T05:51:42;3.95;;;2.25;;
29686;SDS011;16599;47.078;15.536;2022-07-17T05:54:09;3.03;;;2.10;;
29686;SDS011;16599;47.078;15.536;2022-07-17T05:56:35;3.28;;;2.00;;
29686;SDS011;16599;47.078;15.536;2022-07-17T05:59:02;3.15;;;2.00;;
29686;SDS011;16599;47.078;15.536;2022-07-17T06:01:29;3.10;;;1.88;;
29686;SDS011;16599;47.078;15.536;2022-07-17T06:03:57;2.67;;;1.90;;
29686;SDS011;16599;47.078;15.536;2022-07-17T06:06:24;1.85;;;1.67;;
29686;SDS011;16599;47.078;15.536;2022-07-17T06:08:51;4.43;;;2.00;;
29686;SDS011;16599;47.078;15.536;2022-07-17T06:11:18;3.65;;;1.88;;
29686;SDS011;16599;47.078;15.536;2022-07-17T06:13:52;1.98;;;1.80;;
29686;SDS011;16599;47.078;15.536;2022-07-17T06:16:19;3.25;;;1.83;;
29686;SDS011;16599;47.078;15.536;2022-07-17T06:18:46;4.32;;;2.03;;
29686;SDS011;16599;47.078;15.536;2022-07-17T06:21:13;5.00;;;2.30;;
29686;SDS011;16599;47.078;15.536;2022-07-17T06:23:40;3.05;;;2.10;;
29686;SDS011;16599;47.078;15.536;2022-07-17T06:26:07;4.28;;;2.10;;
29686;SDS011;16599;47.078;15.536;2022-07-17T06:28:34;3.88;;;2.17;;
29686;SDS011;16599;47.078;15.536;2022-07-17T06:31:01;4.05;;;2.20;;
29686;SDS011;16599;47.078;15.536;2022-07-17T06:33:28;5.20;;;2.00;;
29686;SDS011;16599;47.078;15.536;2022-07-17T06:35:55;4.75;;;2.08;;
29686;SDS011;16599;47.078;15.536;2022-07-17T06:38:22;3.55;;;1.95;;
29686;SDS011;16599;47.078;15.536;2022-07-17T06:40:49;3.60;;;2.17;;
29686;SDS011;16599;47.078;15.536;2022-07-17T06:43:16;11.40;;;1.75;;
29686;SDS011;16599;47.078;15.536;2022-07-17T06:45:43;8.75;;;2.67;;
29686;SDS011;16599;47.078;15.536;2022-07-17T06:48:10;3.30;;;2.20;;
29686;SDS011;16599;47.078;15.536;2022-07-17T06:50:37;3.20;;;2.13;;
29686;SDS011;16599;47.078;15.536;2022-07-17T06:53:03;2.53;;;2.00;;
29686;SDS011;16599;47.078;15.536;2022-07-17T06:55:30;5.22;;;1.92;;
29686;SDS011;16599;47.078;15.536;2022-07-17T06:57:57;9.25;;;2.90;;
29686;SDS011;16599;47.078;15.536;2022-07-17T07:00:24;3.95;;;1.98;;
29686;SDS011;16599;47.078;15.536;2022-07-17T07:02:51;3.05;;;1.80;;
29686;SDS011;16599;47.078;15.536;2022-07-17T07:05:18;3.05;;;1.98;;
29686;SDS011;16599;47.078;15.536;2022-07-17T07:07:45;2.42;;;1.92;;
29686;SDS011;16599;47.078;15.536;2022-07-17T07:10:12;3.03;;;1.85;;
29686;SDS011;16599;47.078;15.536;2022-07-17T07:12:39;2.03;;;1.90;;
29686;SDS011;16599;47.078;15.536;2022-07-17T07:15:06;2.90;;;2.00;;
29686;SDS011;16599;47.078;15.536;2022-07-17T07:17:39;3.88;;;2.15;;
29686;SDS011;16599;47.078;15.536;2022-07-17T07:20:07;3.42;;;1.77;;
29686;SDS011;16599;47.078;15.536;2022-07-17T07:22:34;2.15;;;1.90;;
29686;SDS011;16599;47.078;15.536;2022-07-17T07:25:03;2.30;;;1.80;;
29686;SDS011;16599;47.078;15.536;2022-07-17T07:27:30;4.50;;;1.70;;
29686;SDS011;16599;47.078;15.536;2022-07-17T07:29:57;3.88;;;1.70;;
29686;SDS011;16599;47.078;15.536;2022-07-17T07:32:24;2.85;;;1.90;;
29686;SDS011;16599;47.078;15.536;2022-07-17T07:34:51;4.00;;;1.75;;
29686;SDS011;16599;47.078;15.536;2022-07-17T07:37:18;2.80;;;2.15;;
29686;SDS011;16599;47.078;15.536;2022-07-17T07:39:45;4.30;;;1.88;;
29686;SDS011;16599;47.078;15.536;2022-07-17T07:42:12;5.60;;;1.88;;
29686;SDS011;16599;47.078;15.536;2022-07-17T07:44:39;2.88;;;2.03;;
29686;SDS011;16599;47.078;15.536;2022-07-17T07:47:05;2.75;;;1.88;;
29686;SDS011;16599;47.078;15.536;2022-07-17T07:49:32;1.95;;;1.60;;
29686;SDS011;16599;47.078;15.536;2022-07-17T07:52:05;3.40;;;1.80;;
29686;SDS011;16599;47.078;15.536;2022-07-17T07:54:33;2.83;;;1.67;;
29686;SDS011;16599;47.078;15.536;2022-07-17T07:57:00;4.78;;;1.90;;
29686;SDS011;16599;47.078;15.536;2022-07-17T07:59:27;2.58;;;1.70;;
29686;SDS011;16599;47.078;15.536;2022-07-17T08:01:59;2.33;;;1.80;;
29686;SDS011;16599;47.078;15.536;2022-07-17T08:04:27;5.50;;;1.90;;
29686;SDS011;16599;47.078;15.536;2022-07-17T08:06:54;8.02;;;1.83;;
29686;SDS011;16599;47.078;15.536;2022-07-17T08:09:21;6.88;;;2.13;;
29686;SDS011;16599;47.078;15.536;2022-07-17T08:11:48;2.67;;;1.70;;
29686;SDS011;16599;47.078;15.536;2022-07-17T08:14:15;4.68;;;2.00;;
29686;SDS011;16599;47.078;15.536;2022-07-17T08:16:43;5.50;;;1.70;;
29686;SDS011;16599;47.078;15.536;2022-07-17T08:19:10;2.08;;;1.58;;
29686;SDS011;16599;47.078;15.536;2022-07-17T08:21:37;5.10;;;1.60;;
29686;SDS011;16599;47.078;15.536;2022-07-17T08:24:04;5.07;;;2.15;;
29686;SDS011;16599;47.078;15.536;2022-07-17T08:26:31;6.18;;;1.50;;
29686;SDS011;16599;47.078;15.536;2022-07-17T08:28:58;2.47;;;1.73;;
29686;SDS011;16599;47.078;15.536;2022-07-17T08:31:24;4.07;;;2.17;;
29686;SDS011;16599;47.078;15.536;2022-07-17T08:33:52;2.33;;;1.70;;
29686;SDS011;16599;47.078;15.536;2022-07-17T08:36:19;3.28;;;2.00;;
29686;SDS011;16599;47.078;15.536;2022-07-17T08:38:46;2.15;;;1.70;;
29686;SDS011;16599;47.078;15.536;2022-07-17T08:41:14;9.48;;;1.92;;
29686;SDS011;16599;47.078;15.536;2022-07-17T08:43:43;6.32;;;1.80;;
29686;SDS011;16599;47.078;15.536;2022-07-17T08:46:10;5.30;;;1.60;;
29686;SDS011;16599;47.078;15.536;2022-07-17T08:48:42;4.05;;;1.65;;
29686;SDS011;16599;47.078;15.536;2022-07-17T08:51:12;3.30;;;1.60;;
29686;SDS011;16599;47.078;15.536;2022-07-17T08:53:43;4.78;;;1.60;;
29686;SDS011;16599;47.078;15.536;2022-07-17T08:56:10;3.60;;;1.60;;
29686;SDS011;16599;47.078;15.536;2022-07-17T08:58:37;5.30;;;1.83;;
29686;SDS011;16599;47.078;15.536;2022-07-17T09:01:04;2.72;;;1.55;;
29686;SDS011;16599;47.078;15.536;2022-07-17T09:03:32;2.50;;;1.63;;
29686;SDS011;16599;47.078;15.536;2022-07-17T09:06:20;4.10;;;1.65;;
29686;SDS011;16599;47.078;15.536;2022-07-17T09:08:47;3.95;;;1.90;;
29686;SDS011;16599;47.078;15.536;2022-07-17T09:11:14;3.83;;;1.85;;
29686;SDS011;16599;47.078;15.536;2022-07-17T09:13:45;3.33;;;1.92;;
29686;SDS011;16599;47.078;15.536;2022-07-17T09:16:13;3.30;;;1.63;;
29686;SDS011;16599;47.078;15.536;2022-07-17T09:18:44;2.50;;;1.58;;
29686;SDS011;16599;47.078;15.536;2022-07-17T09:21:25;6.57;;;2.25;;
29686;SDS011;16599;47.078;15.536;2022-07-17T09:24:00;5.05;;;1.90;;
29686;SDS011;16599;47.078;15.536;2022-07-17T09:26:29;2.30;;;1.75;;
29686;SDS011;16599;47.078;15.536;2022-07-17T09:28:57;3.00;;;1.80;;
29686;SDS011;16599;47.078;15.536;2022-07-17T09:31:25;6.57;;;2.17;;
29686;SDS011;16599;47.078;15.536;2022-07-17T09:33:53;3.20;;;1.90;;
29686;SDS011;16599;47.078;15.536;2022-07-17T09:36:21;3.10;;;1.70;;
29686;SDS011;16599;47.078;15.536;2022-07-17T09:38:52;4.10;;;1.77;;
29686;SDS011;16599;47.078;15.536;2022-07-17T09:41:20;3.65;;;1.90;;
29686;SDS011;16599;47.078;15.536;2022-07-17T09:43:50;3.33;;;2.00;;
29686;SDS011;16599;47.078;15.536;2022-07-17T09:46:21;3.90;;;2.10;;
29686;SDS011;16599;47.078;15.536;2022-07-17T09:48:55;4.32;;;2.30;;
29686;SDS011;16599;47.078;15.536;2022-07-17T09:51:31;3.83;;;2.00;;
29686;SDS011;16599;47.078;15.536;2022-07-17T09:54:04;2.45;;;2.10;;
29686;SDS011;16599;47.078;15.536;2022-07-17T09:56:37;3.85;;;1.80;;
29686;SDS011;16599;47.078;15.536;2022-07-17T09:59:06;2.13;;;1.60;;
29686;SDS011;16599;47.078;15.536;2022-07-17T10:01:38;4.03;;;2.00;;
29686;SDS011;16599;47.078;15.536;2022-07-17T10:04:08;3.50;;;1.98;;
29686;SDS011;16599;47.078;15.536;2022-07-17T10:06:36;2.10;;;1.80;;
29686;SDS011;16599;47.078;15.536;2022-07-17T10:09:04;3.20;;;2.05;;
29686;SDS011;16599;47.078;15.536;2022-07-17T10:11:41;2.92;;;1.90;;
29686;SDS011;16599;47.078;15.536;2022-07-17T10:14:14;1.90;;;1.58;;
29686;SDS011;16599;47.078;15.536;2022-07-17T10:16:43;4.07;;;2.17;;
29686;SDS011;16599;47.078;15.536;2022-07-17T10:19:19;2.28;;;1.88;;
29686;SDS011;16599;47.078;15.536;2022-07-17T10:21:54;3.97;;;2.10;;
29686;SDS011;16599;47.078;15.536;2022-07-17T10:24:27;2.67;;;1.98;;
29686;SDS011;16599;47.078;15.536;2022-07-17T10:26:56;3.92;;;1.83;;
29686;SDS011;16599;47.078;15.536;2022-07-17T10:31:56;2.22;;;2.03;;
29686;SDS011;16599;47.078;15.536;2022-07-17T10:34:40;4.25;;;1.52;;
29686;SDS011;16599;47.078;15.536;2022-07-17T10:47:46;2.88;;;1.70;;
29686;SDS011;16599;47.078;15.536;2022-07-17T10:50:17;6.00;;;1.80;;
29686;SDS011;16599;47.078;15.536;2022-07-17T10:55:54;3.90;;;1.60;;
29686;SDS011;16599;47.078;15.536;2022-07-17T10:58:29;5.75;;;1.58;;
29686;SDS011;16599;47.078;15.536;2022-07-17T11:03:27;5.10;;;2.22;;
29686;SDS011;16599;47.078;15.536;2022-07-17T11:05:54;2.80;;;1.90;;
29686;SDS011;16599;47.078;15.536;2022-07-17T11:08:34;4.30;;;1.65;;
29686;SDS011;16599;47.078;15.536;2022-07-17T11:11:02;4.32;;;2.22;;
29686;SDS011;16599;47.078;15.536;2022-07-17T11:13:29;4.50;;;1.70;;
29686;SDS011;16599;47.078;15.536;2022-07-17T11:15:56;3.70;;;2.05;;
29686;SDS011;16599;47.078;15.536;2022-07-17T11:18:23;2.95;;;1.70;;
29686;SDS011;16599;47.078;15.536;2022-07-17T11:20:54;2.75;;;1.90;;
29686;SDS011;16599;47.078;15.536;2022-07-17T11:23:26;2.15;;;1.55;;
29686;SDS011;16599;47.078;15.536;2022-07-17T11:25:57;3.40;;;1.73;;
29686;SDS011;16599;47.078;15.536;2022-07-17T11:28:36;2.92;;;1.52;;
29686;SDS011;16599;47.078;15.536;2022-07-17T11:33:58;3.30;;;1.80;;
29686;SDS011;16599;47.078;15.536;2022-07-17T11:36:31;2.03;;;1.67;;
29686;SDS011;16599;47.078;15.536;2022-07-17T11:39:10;3.17;;;1.60;;
29686;SDS011;16599;47.078;15.536;2022-07-17T11:46:40;6.97;;;1.77;;
29686;SDS011;16599;47.078;15.536;2022-07-17T11:49:09;4.32;;;1.95;;
29686;SDS011;16599;47.078;15.536;2022-07-17T11:51:37;4.82;;;2.67;;
29686;SDS011;16599;47.078;15.536;2022-07-17T11:54:08;2.53;;;1.95;;
29686;SDS011;16599;47.078;15.536;2022-07-17T11:56:37;2.47;;;2.00;;
29686;SDS011;16599;47.078;15.536;2022-07-17T11:59:06;2.83;;;1.73;;
29686;SDS011;16599;47.078;15.536;2022-07-17T12:01:37;3.25;;;2.15;;
29686;SDS011;16599;47.078;15.536;2022-07-17T12:04:07;4.28;;;1.65;;
29686;SDS011;16599;47.078;15.536;2022-07-17T12:06:42;2.90;;;1.92;;
29686;SDS011;16599;47.078;15.536;2022-07-17T12:09:10;2.85;;;1.70;;
29686;SDS011;16599;47.078;15.536;2022-07-17T12:11:47;5.15;;;1.83;;
29686;SDS011;16599;47.078;15.536;2022-07-17T12:14:15;1.63;;;1.50;;
29686;SDS011;16599;47.078;15.536;2022-07-17T12:16:42;4.88;;;1.73;;
29686;SDS011;16599;47.078;15.536;2022-07-17T12:19:16;4.38;;;1.77;;
29686;SDS011;16599;47.078;15.536;2022-07-17T12:21:59;6.70;;;1.63;;
29686;SDS011;16599;47.078;15.536;2022-07-17T12:24:29;4.47;;;1.95;;
29686;SDS011;16599;47.078;15.536;2022-07-17T12:26:58;4.45;;;1.90;;
29686;SDS011;16599;47.078;15.536;2022-07-17T12:29:27;2.80;;;1.75;;
29686;SDS011;16599;47.078;15.536;2022-07-17T12:32:11;2.03;;;1.60;;
29686;SDS011;16599;47.078;15.536;2022-07-17T12:34:40;2.20;;;1.75;;
29686;SDS011;16599;47.078;15.536;2022-07-17T12:39:39;4.03;;;1.85;;
29686;SDS011;16599;47.078;15.536;2022-07-17T12:42:06;4.00;;;2.00;;
29686;SDS011;16599;47.078;15.536;2022-07-17T12:44:34;3.17;;;1.88;;
29686;SDS011;16599;47.078;15.536;2022-07-17T12:47:01;5.28;;;1.80;;
29686;SDS011;16599;47.078;15.536;2022-07-17T12:49:29;5.60;;;1.70;;
29686;SDS011;16599;47.078;15.536;2022-07-17T12:51:57;1.95;;;1.42;;
29686;SDS011;16599;47.078;15.536;2022-07-17T12:54:23;1.70;;;1.52;;
29686;SDS011;16599;47.078;15.536;2022-07-17T12:56:50;3.20;;;2.10;;
29686;SDS011;16599;47.078;15.536;2022-07-17T12:59:17;3.25;;;1.77;;
29686;SDS011;16599;47.078;15.536;2022-07-17T13:01:44;2.88;;;1.95;;
29686;SDS011;16599;47.078;15.536;2022-07-17T13:04:12;6.25;;;2.85;;
29686;SDS011;16599;47.078;15.536;2022-07-17T13:06:39;3.05;;;1.80;;
29686;SDS011;16599;47.078;15.536;2022-07-17T13:09:07;3.50;;;1.77;;
29686;SDS011;16599;47.078;15.536;2022-07-17T13:11:34;6.68;;;2.00;;
29686;SDS011;16599;47.078;15.536;2022-07-17T13:14:01;3.85;;;1.80;;
29686;SDS011;16599;47.078;15.536;2022-07-17T13:16:28;4.50;;;1.67;;
29686;SDS011;16599;47.078;15.536;2022-07-17T13:18:55;2.00;;;1.75;;
29686;SDS011;16599;47.078;15.536;2022-07-17T13:21:24;4.78;;;1.80;;
29686;SDS011;16599;47.078;15.536;2022-07-17T13:23:51;4.75;;;1.58;;
29686;SDS011;16599;47.078;15.536;2022-07-17T13:26:17;4.38;;;1.88;;
29686;SDS011;16599;47.078;15.536;2022-07-17T13:28:45;2.78;;;1.77;;
29686;SDS011;16599;47.078;15.536;2022-07-17T13:31:12;3.35;;;1.75;;
29686;SDS011;16599;47.078;15.536;2022-07-17T13:33:40;7.40;;;2.20;;
29686;SDS011;16599;47.078;15.536;2022-07-17T13:36:07;3.15;;;1.90;;
29686;SDS011;16599;47.078;15.536;2022-07-17T13:38:34;3.67;;;1.60;;
29686;SDS011;16599;47.078;15.536;2022-07-17T13:41:01;3.35;;;2.38;;
29686;SDS011;16599;47.078;15.536;2022-07-17T13:43:28;2.20;;;1.70;;
29686;SDS011;16599;47.078;15.536;2022-07-17T13:45:55;1.98;;;1.70;;
29686;SDS011;16599;47.078;15.536;2022-07-17T13:48:22;2.40;;;2.05;;
29686;SDS011;16599;47.078;15.536;2022-07-17T13:50:48;3.67;;;1.83;;
29686;SDS011;16599;47.078;15.536;2022-07-17T13:53:15;2.05;;;1.70;;
29686;SDS011;16599;47.078;15.536;2022-07-17T13:55:43;3.60;;;1.85;;
29686;SDS011;16599;47.078;15.536;2022-07-17T13:58:17;2.90;;;1.80;;
29686;SDS011;16599;47.078;15.536;2022-07-17T14:00:44;5.68;;;1.83;;
29686;SDS011;16599;47.078;15.536;2022-07-17T14:03:12;2.42;;;1.98;;
29686;SDS011;16599;47.078;15.536;2022-07-17T14:05:39;3.22;;;2.03;;
29686;SDS011;16599;47.078;15.536;2022-07-17T14:08:06;4.32;;;1.77;;
29686;SDS011;16599;47.078;15.536;2022-07-17T14:10:33;2.85;;;2.20;;
29686;SDS011;16599;47.078;15.536;2022-07-17T14:13:01;2.47;;;1.80;;
29686;SDS011;16599;47.078;15.536;2022-07-17T14:15:28;3.40;;;1.80;;
29686;SDS011;16599;47.078;15.536;2022-07-17T14:17:55;3.35;;;1.80;;
29686;SDS011;16599;47.078;15.536;2022-07-17T14:20:22;2.35;;;1.63;;
29686;SDS011;16599;47.078;15.536;2022-07-17T14:22:49;2.70;;;1.90;;
29686;SDS011;16599;47.078;15.536;2022-07-17T14:25:16;2.00;;;1.70;;
29686;SDS011;16599;47.078;15.536;2022-07-17T14:27:43;3.67;;;2.08;;
29686;SDS011;16599;47.078;15.536;2022-07-17T14:30:10;2.42;;;1.90;;
29686;SDS011;16599;47.078;15.536;2022-07-17T14:32:37;4.28;;;1.98;;
29686;SDS011;16599;47.078;15.536;2022-07-17T14:35:05;2.45;;;1.70;;
29686;SDS011;16599;47.078;15.536;2022-07-17T14:37:32;2.58;;;1.85;;
29686;SDS011;16599;47.078;15.536;2022-07-17T14:40:06;4.55;;;2.03;;
29686;SDS011;16599;47.078;15.536;2022-07-17T14:42:34;3.67;;;2.20;;
29686;SDS011;16599;47.078;15.536;2022-07-17T14:45:02;2.97;;;1.83;;
29686;SDS011;16599;47.078;15.536;2022-07-17T14:47:29;3.17;;;2.00;;
29686;SDS011;16599;47.078;15.536;2022-07-17T14:49:56;2.45;;;1.63;;
29686;SDS011;16599;47.078;15.536;2022-07-17T14:52:23;2.70;;;1.95;;
29686;SDS011;16599;47.078;15.536;2022-07-17T14:54:50;4.57;;;1.75;;
29686;SDS011;16599;47.078;15.536;2022-07-17T14:57:16;2.15;;;1.95;;
29686;SDS011;16599;47.078;15.536;2022-07-17T14:59:43;3.35;;;1.95;;
29686;SDS011;16599;47.078;15.536;2022-07-17T15:02:10;4.57;;;2.05;;
29686;SDS011;16599;47.078;15.536;2022-07-17T15:04:37;3.55;;;2.10;;
29686;SDS011;16599;47.078;15.536;2022-07-17T15:07:04;3.25;;;2.20;;